createdAt,value
2023-01-24T00:00:38.720Z,78.84
2023-01-24T00:01:38.795Z,78.80
2023-01-24T00:02:38.887Z,78.59
2023-01-24T00:03:39.089Z,78.49
2023-01-24T00:04:39.043Z,78.39
2023-01-24T00:05:39.144Z,78.28
2023-01-24T00:06:39.184Z,78.18
2023-01-24T00:07:39.255Z,77.97
2023-01-24T00:08:39.355Z,77.97
2023-01-24T00:09:39.431Z,77.86
2023-01-24T00:10:39.511Z,77.86
2023-01-24T00:11:39.610Z,77.86
2023-01-24T00:12:39.683Z,77.97
2023-01-24T00:13:39.793Z,77.86
2023-01-24T00:14:39.863Z,77.86
2023-01-24T00:15:39.966Z,77.66
2023-01-24T00:16:40.040Z,77.55
2023-01-24T00:17:40.153Z,77.45
2023-01-24T00:18:40.272Z,77.34
2023-01-24T00:19:40.304Z,77.24
2023-01-24T00:20:40.368Z,77.03
2023-01-24T00:21:40.475Z,76.92
2023-01-24T00:22:40.612Z,76.61
2023-01-24T00:23:40.668Z,76.51
2023-01-24T00:24:40.734Z,76.51
2023-01-24T00:25:40.813Z,76.61
2023-01-24T00:26:40.901Z,76.40
2023-01-24T00:27:40.980Z,76.40
2023-01-24T00:28:41.061Z,76.51
2023-01-24T00:29:41.123Z,76.51
2023-01-24T00:30:41.215Z,76.61
2023-01-24T00:31:41.435Z,76.57
2023-01-24T00:32:41.371Z,76.61
2023-01-24T00:33:41.473Z,76.37
2023-01-24T00:34:41.510Z,76.16
2023-01-24T00:35:41.578Z,75.95
2023-01-24T00:36:41.688Z,75.74
2023-01-24T00:37:41.768Z,75.85
2023-01-24T00:38:41.871Z,75.85
2023-01-24T00:39:41.952Z,75.95
2023-01-24T00:40:42.035Z,76.06
2023-01-24T00:41:42.110Z,76.06
2023-01-24T00:42:42.184Z,76.06
2023-01-24T00:43:42.284Z,76.06
2023-01-24T00:44:42.316Z,75.95
2023-01-24T00:45:42.402Z,75.95
2023-01-24T00:46:42.517Z,75.74
2023-01-24T00:47:42.589Z,75.74
2023-01-24T00:48:42.683Z,75.74
2023-01-24T00:49:42.783Z,75.53
2023-01-24T00:50:42.853Z,75.53
2023-01-24T00:51:42.931Z,75.63
2023-01-24T00:52:43.029Z,75.53
2023-01-24T00:53:43.131Z,75.43
2023-01-24T00:54:43.193Z,75.32
2023-01-24T00:55:43.270Z,75.43
2023-01-24T00:56:43.345Z,75.43
2023-01-24T00:57:43.429Z,75.22
2023-01-24T00:58:43.543Z,74.80
2023-01-24T00:59:43.580Z,74.60
2023-01-24T01:00:43.659Z,73.97
2023-01-24T01:01:43.753Z,73.45
2023-01-24T01:02:43.881Z,73.55
2023-01-24T01:03:43.936Z,73.76
2023-01-24T01:04:43.942Z,73.66
2023-01-24T01:05:44.027Z,73.24
2023-01-24T01:06:44.092Z,73.24
2023-01-24T01:07:44.189Z,73.03
2023-01-24T01:08:44.295Z,73.07
2023-01-24T01:09:44.343Z,73.03
2023-01-24T01:10:44.437Z,73.03
2023-01-24T01:11:44.503Z,73.07
2023-01-24T01:12:44.559Z,72.96
2023-01-24T01:13:44.661Z,73.17
2023-01-24T01:14:44.716Z,73.38
2023-01-24T01:15:44.826Z,73.48
2023-01-24T01:16:44.877Z,73.38
2023-01-24T01:17:44.963Z,73.17
2023-01-24T01:18:45.057Z,73.17
2023-01-24T01:19:45.132Z,73.17
2023-01-24T01:20:45.232Z,73.17
2023-01-24T01:21:45.324Z,73.27
2023-01-24T01:22:45.403Z,73.38
2023-01-24T01:23:45.492Z,73.48
2023-01-24T01:24:45.535Z,73.58
2023-01-24T01:25:45.625Z,73.38
2023-01-24T01:26:45.689Z,72.96
2023-01-24T01:27:45.770Z,72.96
2023-01-24T01:28:45.903Z,73.07
2023-01-24T01:29:45.931Z,73.17
2023-01-24T01:30:46.045Z,73.17
2023-01-24T01:31:46.209Z,73.07
2023-01-24T01:32:46.194Z,73.07
2023-01-24T01:33:46.293Z,73.17
2023-01-24T01:34:46.377Z,73.27
2023-01-24T01:35:46.451Z,73.38
2023-01-24T01:36:46.533Z,73.38
2023-01-24T01:37:46.612Z,73.27
2023-01-24T01:38:46.716Z,73.17
2023-01-24T01:39:46.803Z,72.96
2023-01-24T01:40:46.871Z,72.64
2023-01-24T01:41:46.941Z,72.64
2023-01-24T01:42:47.031Z,72.75
2023-01-24T01:43:47.121Z,72.85
2023-01-24T01:44:47.203Z,72.96
2023-01-24T01:45:47.350Z,72.96
2023-01-24T01:46:47.342Z,72.85
2023-01-24T01:47:47.413Z,72.96
2023-01-24T01:48:47.531Z,72.96
2023-01-24T01:49:47.573Z,73.07
2023-01-24T01:50:47.679Z,73.07
2023-01-24T01:51:47.733Z,73.07
2023-01-24T01:52:47.816Z,73.07
2023-01-24T01:53:47.912Z,73.17
2023-01-24T01:54:47.986Z,73.17
2023-01-24T01:55:48.073Z,73.17
2023-01-24T01:56:48.161Z,73.17
2023-01-24T01:57:48.271Z,72.96
2023-01-24T01:58:48.367Z,72.85
2023-01-24T01:59:48.408Z,72.75
2023-01-24T02:00:48.515Z,72.54
2023-01-24T02:01:48.586Z,72.33
2023-01-24T02:02:48.672Z,72.23
2023-01-24T02:03:48.773Z,71.39
2023-01-24T02:04:48.853Z,70.87
2023-01-24T02:05:48.933Z,70.66
2023-01-24T02:06:49.023Z,70.56
2023-01-24T02:07:49.136Z,70.66
2023-01-24T02:08:49.232Z,70.87
2023-01-24T02:09:49.297Z,71.11
2023-01-24T02:10:49.383Z,71.11
2023-01-24T02:11:49.431Z,70.90
2023-01-24T02:12:49.505Z,71.01
2023-01-24T02:13:49.595Z,71.11
2023-01-24T02:14:49.692Z,71.22
2023-01-24T02:15:49.773Z,71.22
2023-01-24T02:16:49.881Z,71.01
2023-01-24T02:17:49.917Z,70.70
2023-01-24T02:18:50.018Z,70.70
2023-01-24T02:19:50.090Z,71.01
2023-01-24T02:20:50.164Z,71.22
2023-01-24T02:21:50.247Z,71.22
2023-01-24T02:22:50.327Z,71.22
2023-01-24T02:23:50.458Z,71.22
2023-01-24T02:24:50.494Z,71.22
2023-01-24T02:25:50.580Z,71.42
2023-01-24T02:26:50.667Z,71.64
2023-01-24T02:27:50.746Z,71.74
2023-01-24T02:28:50.828Z,71.95
2023-01-24T02:29:50.891Z,71.95
2023-01-24T02:30:51.053Z,71.84
2023-01-24T02:31:51.159Z,71.74
2023-01-24T02:32:51.183Z,71.74
2023-01-24T02:33:51.302Z,71.64
2023-01-24T02:34:51.362Z,71.64
2023-01-24T02:35:51.435Z,71.74
2023-01-24T02:36:51.551Z,71.74
2023-01-24T02:37:51.621Z,71.84
2023-01-24T02:38:51.710Z,71.95
2023-01-24T02:39:51.790Z,72.05
2023-01-24T02:40:51.854Z,71.95
2023-01-24T02:41:51.951Z,71.74
2023-01-24T02:42:52.038Z,71.74
2023-01-24T02:43:52.131Z,71.74
2023-01-24T02:44:52.213Z,71.84
2023-01-24T02:45:52.324Z,71.84
2023-01-24T02:46:52.395Z,71.74
2023-01-24T02:47:52.489Z,71.74
2023-01-24T02:48:52.593Z,71.74
2023-01-24T02:49:52.624Z,71.74
2023-01-24T02:50:52.704Z,71.60
2023-01-24T02:51:52.763Z,71.60
2023-01-24T02:52:52.842Z,71.60
2023-01-24T02:53:52.944Z,71.60
2023-01-24T02:54:53.040Z,71.60
2023-01-24T02:55:53.095Z,71.60
2023-01-24T02:56:53.176Z,71.60
2023-01-24T02:57:53.260Z,71.60
2023-01-24T02:58:53.358Z,71.60
2023-01-24T02:59:53.404Z,71.50
2023-01-24T03:00:53.509Z,71.50
2023-01-24T03:01:53.708Z,71.50
2023-01-24T03:02:53.629Z,71.50
2023-01-24T03:03:53.789Z,71.50
2023-01-24T03:04:53.799Z,71.39
2023-01-24T03:05:53.875Z,71.39
2023-01-24T03:06:53.992Z,71.39
2023-01-24T03:07:54.035Z,71.39
2023-01-24T03:08:54.142Z,71.50
2023-01-24T03:09:54.201Z,71.39
2023-01-24T03:10:54.270Z,71.29
2023-01-24T03:11:54.356Z,71.19
2023-01-24T03:12:54.433Z,70.76
2023-01-24T03:13:54.529Z,70.14
2023-01-24T03:14:54.601Z,69.86
2023-01-24T03:15:54.677Z,69.65
2023-01-24T03:16:54.773Z,69.65
2023-01-24T03:17:54.849Z,69.86
2023-01-24T03:18:54.948Z,70.17
2023-01-24T03:19:54.998Z,70.38
2023-01-24T03:20:55.101Z,70.28
2023-01-24T03:21:55.179Z,70.28
2023-01-24T03:22:55.267Z,70.38
2023-01-24T03:23:55.418Z,70.48
2023-01-24T03:24:55.494Z,70.17
2023-01-24T03:25:55.519Z,69.89
2023-01-24T03:26:55.614Z,69.89
2023-01-24T03:27:55.697Z,70.00
2023-01-24T03:28:55.809Z,69.89
2023-01-24T03:29:55.837Z,69.68
2023-01-24T03:30:55.905Z,69.26
2023-01-24T03:31:56.131Z,69.06
2023-01-24T03:32:56.115Z,69.06
2023-01-24T03:33:56.226Z,69.09
2023-01-24T03:34:56.292Z,69.09
2023-01-24T03:35:56.372Z,69.09
2023-01-24T03:36:56.457Z,69.19
2023-01-24T03:37:56.538Z,69.40
2023-01-24T03:38:56.644Z,69.61
2023-01-24T03:39:56.668Z,69.82
2023-01-24T03:40:56.757Z,70.03
2023-01-24T03:41:56.823Z,70.13
2023-01-24T03:42:56.908Z,70.24
2023-01-24T03:43:56.994Z,70.34
2023-01-24T03:44:57.122Z,70.45
2023-01-24T03:46:07.502Z,70.34
2023-01-24T03:46:57.331Z,70.03
2023-01-24T03:47:57.378Z,69.71
2023-01-24T03:48:57.489Z,69.71
2023-01-24T03:49:57.485Z,69.61
2023-01-24T03:50:57.570Z,69.51
2023-01-24T03:51:57.661Z,69.51
2023-01-24T03:52:57.732Z,69.61
2023-01-24T03:53:57.846Z,69.61
2023-01-24T03:54:57.936Z,69.71
2023-01-24T03:55:58.019Z,69.82
2023-01-24T03:56:58.112Z,70.03
2023-01-24T03:57:58.211Z,70.24
2023-01-24T03:58:58.373Z,70.13
2023-01-24T03:59:58.386Z,69.92
2023-01-24T04:00:58.509Z,69.92
2023-01-24T04:01:58.513Z,70.03
2023-01-24T04:02:58.626Z,70.24
2023-01-24T04:03:58.680Z,70.34
2023-01-24T04:04:58.786Z,70.24
2023-01-24T04:05:58.872Z,70.24
2023-01-24T04:06:58.926Z,70.13
2023-01-24T04:07:58.999Z,70.13
2023-01-24T04:08:59.134Z,70.03
2023-01-24T04:09:59.171Z,69.92
2023-01-24T04:10:59.249Z,70.03
2023-01-24T04:11:59.359Z,70.03
2023-01-24T04:12:59.403Z,69.92
2023-01-24T04:13:59.508Z,69.92
2023-01-24T04:14:59.559Z,70.03
2023-01-24T04:15:59.647Z,69.82
2023-01-24T04:16:59.832Z,69.61
2023-01-24T04:17:59.839Z,69.61
2023-01-24T04:18:59.952Z,69.61
2023-01-24T04:20:00.001Z,69.71
2023-01-24T04:21:00.114Z,69.82
2023-01-24T04:22:00.192Z,69.92
2023-01-24T04:23:00.284Z,70.13
2023-01-24T04:24:00.432Z,70.24
2023-01-24T04:25:00.469Z,70.24
2023-01-24T04:26:00.544Z,70.24
2023-01-24T04:27:00.623Z,70.34
2023-01-24T04:28:00.709Z,70.34
2023-01-24T04:29:00.813Z,70.34
2023-01-24T04:30:00.850Z,70.34
2023-01-24T04:31:01.103Z,70.20
2023-01-24T04:32:01.137Z,70.13
2023-01-24T04:33:01.072Z,69.68
2023-01-24T04:34:01.172Z,69.29
2023-01-24T04:35:01.252Z,69.29
2023-01-24T04:36:01.339Z,69.40
2023-01-24T04:37:01.423Z,69.40
2023-01-24T04:38:01.515Z,69.51
2023-01-24T04:39:01.617Z,69.40
2023-01-24T04:40:01.687Z,69.40
2023-01-24T04:41:01.797Z,69.51
2023-01-24T04:42:01.856Z,69.61
2023-01-24T04:43:01.951Z,69.51
2023-01-24T04:44:02.034Z,69.51
2023-01-24T04:45:02.151Z,69.51
2023-01-24T04:46:02.179Z,69.61
2023-01-24T04:47:02.350Z,69.82
2023-01-24T04:48:02.365Z,69.92
2023-01-24T04:49:02.447Z,69.92
2023-01-24T04:50:02.493Z,69.92
2023-01-24T04:51:02.579Z,70.03
2023-01-24T04:52:02.655Z,70.03
2023-01-24T04:53:02.733Z,70.13
2023-01-24T04:54:02.820Z,70.03
2023-01-24T04:55:02.917Z,69.92
2023-01-24T04:56:03.092Z,69.82
2023-01-24T04:57:03.085Z,69.82
2023-01-24T04:58:14.203Z,69.82
2023-01-24T04:59:03.350Z,69.92
2023-01-24T05:00:03.401Z,69.92
2023-01-24T05:01:04.632Z,70.03
2023-01-24T05:02:03.487Z,69.82
2023-01-24T05:03:03.578Z,69.71
2023-01-24T05:04:03.651Z,69.61
2023-01-24T05:05:03.712Z,69.61
2023-01-24T05:06:03.765Z,69.61
2023-01-24T05:07:03.855Z,69.61
2023-01-24T05:08:03.934Z,69.51
2023-01-24T05:09:04.043Z,69.40
2023-01-24T05:10:04.093Z,69.19
2023-01-24T05:11:04.919Z,69.09
2023-01-24T05:12:04.256Z,69.19
2023-01-24T05:13:04.342Z,69.19
2023-01-24T05:14:04.443Z,69.19
2023-01-24T05:15:04.521Z,69.29
2023-01-24T05:16:04.599Z,69.29
2023-01-24T05:17:04.767Z,69.29
2023-01-24T05:18:04.728Z,69.29
2023-01-24T05:19:04.832Z,69.29
2023-01-24T05:20:04.905Z,69.40
2023-01-24T05:21:05.082Z,69.40
2023-01-24T05:22:05.076Z,69.40
2023-01-24T05:23:05.174Z,69.40
2023-01-24T05:24:05.336Z,69.29
2023-01-24T05:25:05.349Z,69.19
2023-01-24T05:26:05.403Z,68.98
2023-01-24T05:27:05.472Z,68.98
2023-01-24T05:28:05.557Z,68.98
2023-01-24T05:29:05.647Z,68.98
2023-01-24T05:30:05.716Z,68.98
2023-01-24T05:31:05.857Z,69.09
2023-01-24T05:32:05.884Z,69.19
2023-01-24T05:33:05.974Z,69.19
2023-01-24T05:34:06.174Z,69.19
2023-01-24T05:35:06.171Z,69.09
2023-01-24T05:37:34.725Z,67.94
2023-01-24T05:38:35.834Z,67.94
2023-01-24T05:39:35.986Z,68.28
2023-01-24T05:40:35.973Z,68.28
2023-01-24T05:41:36.066Z,67.86
2023-01-24T05:42:36.163Z,67.44
2023-01-24T05:43:36.240Z,67.65
2023-01-24T05:44:36.357Z,67.76
2023-01-24T05:45:36.414Z,67.65
2023-01-24T05:46:36.547Z,67.58
2023-01-24T05:51:23.948Z,68.34
2023-01-24T05:52:24.911Z,68.55
2023-01-24T05:59:35.708Z,69.32
2023-01-24T06:00:36.956Z,69.21
2023-01-24T06:15:34.288Z,70.04
2023-01-24T06:16:35.282Z,70.04
2023-01-24T06:17:35.281Z,69.83
2023-01-24T06:18:35.344Z,69.73
2023-01-24T06:19:35.396Z,69.73
2023-01-24T06:20:35.455Z,69.73
2023-01-24T06:21:35.621Z,69.93
2023-01-24T06:22:35.605Z,70.11
2023-01-24T06:23:35.738Z,70.22
2023-01-24T06:24:35.758Z,70.22
2023-01-24T06:25:35.833Z,70.11
2023-01-24T06:26:35.889Z,69.80
2023-01-24T06:27:35.988Z,69.80
2023-01-24T06:28:36.061Z,69.80
2023-01-24T06:29:36.121Z,69.98
2023-01-24T06:30:36.187Z,70.08
2023-01-24T06:31:36.442Z,70.29
2023-01-24T06:32:36.321Z,70.40
2023-01-24T06:33:36.436Z,70.50
2023-01-24T06:34:36.488Z,70.61
2023-01-24T06:35:36.599Z,70.61
2023-01-24T06:36:36.655Z,70.47
2023-01-24T06:37:36.734Z,70.26
2023-01-24T06:38:36.819Z,70.15
2023-01-24T06:39:36.909Z,70.05
2023-01-24T06:40:37.005Z,69.84
2023-01-24T06:41:37.101Z,69.63
2023-01-24T06:42:37.182Z,69.32
2023-01-24T06:43:37.298Z,69.11
2023-01-24T06:44:37.358Z,69.00
2023-01-24T06:45:37.443Z,68.69
2023-01-24T06:46:37.639Z,68.51
2023-01-24T06:47:37.632Z,68.30
2023-01-24T06:48:37.687Z,68.30
2023-01-24T06:49:37.753Z,68.41
2023-01-24T06:50:37.864Z,68.41
2023-01-24T06:51:37.959Z,68.41
2023-01-24T06:52:38.040Z,68.65
2023-01-24T06:53:38.095Z,68.65
2023-01-24T06:54:38.172Z,68.75
2023-01-24T06:55:38.280Z,68.93
2023-01-24T06:56:38.313Z,69.14
2023-01-24T06:57:38.388Z,69.35
2023-01-24T06:58:38.498Z,69.45
2023-01-24T06:59:38.590Z,69.56
2023-01-24T07:00:38.715Z,69.67
2023-01-24T07:01:38.852Z,69.56
2023-01-24T07:02:38.901Z,69.45
2023-01-24T07:03:38.933Z,69.14
2023-01-24T07:04:39.014Z,68.82
2023-01-24T07:05:39.113Z,68.72
2023-01-24T07:06:39.158Z,68.62
2023-01-24T07:07:39.249Z,68.51
2023-01-24T07:08:39.334Z,68.41
2023-01-24T07:09:39.434Z,68.41
2023-01-24T07:10:39.507Z,68.51
2023-01-24T07:11:39.734Z,68.72
2023-01-24T07:12:39.764Z,68.93
2023-01-24T07:13:39.798Z,69.24
2023-01-24T07:14:39.858Z,69.35
2023-01-24T07:15:39.988Z,69.45
2023-01-24T07:16:40.028Z,69.45
2023-01-24T07:17:40.123Z,69.42
2023-01-24T07:18:40.205Z,69.42
2023-01-24T07:19:40.298Z,69.32
2023-01-24T07:20:40.407Z,69.32
2023-01-24T07:21:40.510Z,69.32
2023-01-24T07:22:40.551Z,69.11
2023-01-24T07:23:40.651Z,68.90
2023-01-24T07:24:40.721Z,68.90
2023-01-24T07:25:40.837Z,68.90
2023-01-24T07:26:40.882Z,69.11
2023-01-24T07:27:41.666Z,69.11
2023-01-24T07:28:41.050Z,69.11
2023-01-24T07:29:41.142Z,68.79
2023-01-24T07:30:41.242Z,68.38
2023-01-24T07:31:41.466Z,68.27
2023-01-24T07:32:41.387Z,68.16
2023-01-24T07:33:41.471Z,68.16
2023-01-24T07:34:41.562Z,68.16
2023-01-24T07:35:41.669Z,68.38
2023-01-24T07:36:41.711Z,68.38
2023-01-24T07:37:41.803Z,68.48
2023-01-24T07:38:41.858Z,68.48
2023-01-24T07:39:41.949Z,68.38
2023-01-24T07:40:42.012Z,68.38
2023-01-24T07:41:42.101Z,68.48
2023-01-24T07:42:42.203Z,68.59
2023-01-24T07:43:42.264Z,68.69
2023-01-24T07:44:42.350Z,68.90
2023-01-24T07:45:42.502Z,69.00
2023-01-24T07:46:42.499Z,69.00
2023-01-24T07:47:42.589Z,69.00
2023-01-24T07:48:42.684Z,69.11
2023-01-24T07:49:42.773Z,69.11
2023-01-24T07:50:42.866Z,69.00
2023-01-24T07:51:42.973Z,68.79
2023-01-24T07:52:43.039Z,68.69
2023-01-24T07:53:43.121Z,68.59
2023-01-24T07:54:43.192Z,68.59
2023-01-24T07:55:52.963Z,68.59
2023-01-24T07:56:43.347Z,68.38
2023-01-24T07:57:43.437Z,68.48
2023-01-24T07:58:43.534Z,68.59
2023-01-24T07:59:43.632Z,68.59
2023-01-24T08:00:43.804Z,68.59
2023-01-24T08:01:43.791Z,68.59
2023-01-24T08:02:43.844Z,68.55
2023-01-24T08:03:43.931Z,68.66
2023-01-24T08:04:44.021Z,68.76
2023-01-24T08:05:44.120Z,68.76
2023-01-24T08:06:44.159Z,68.76
2023-01-24T08:07:44.237Z,68.66
2023-01-24T08:08:44.314Z,68.66
2023-01-24T08:09:44.401Z,68.76
2023-01-24T08:10:44.497Z,68.66
2023-01-24T08:11:44.563Z,68.66
2023-01-24T08:12:44.638Z,68.87
2023-01-24T08:13:44.730Z,68.94
2023-01-24T08:14:44.819Z,68.94
2023-01-24T08:15:44.955Z,68.94
2023-01-24T08:16:45.088Z,68.84
2023-01-24T08:17:45.071Z,68.94
2023-01-24T08:18:45.138Z,69.04
2023-01-24T08:19:55.973Z,68.94
2023-01-24T08:20:45.350Z,68.94
2023-01-24T08:21:45.409Z,68.73
2023-01-24T08:22:57.069Z,68.63
2023-01-24T08:23:45.656Z,68.63
2023-01-24T08:24:45.632Z,68.63
2023-01-24T08:25:45.839Z,68.73
2023-01-24T08:26:45.819Z,68.63
2023-01-24T08:27:46.922Z,68.63
2023-01-24T08:28:46.014Z,68.63
2023-01-24T08:29:46.091Z,68.73
2023-01-24T08:30:46.193Z,68.73
2023-01-24T08:31:46.278Z,68.84
2023-01-24T08:32:46.301Z,68.94
2023-01-24T08:33:46.400Z,68.94
2023-01-24T08:34:46.460Z,68.94
2023-01-24T08:35:46.572Z,69.04
2023-01-24T08:36:46.603Z,69.04
2023-01-24T08:37:46.672Z,69.15
2023-01-24T08:38:46.754Z,69.15
2023-01-24T08:39:46.832Z,69.15
2023-01-24T08:40:50.584Z,68.94
2023-01-24T08:41:46.990Z,68.84
2023-01-24T08:42:47.070Z,68.84
2023-01-24T08:43:47.155Z,68.73
2023-01-24T08:44:47.233Z,68.63
2023-01-24T08:45:47.343Z,68.41
2023-01-24T08:46:47.370Z,68.31
2023-01-24T08:47:47.463Z,68.41
2023-01-24T08:48:47.551Z,68.41
2023-01-24T08:49:47.627Z,68.41
2023-01-24T08:50:47.722Z,68.31
2023-01-24T08:51:47.790Z,68.31
2023-01-24T08:52:47.862Z,68.31
2023-01-24T08:53:47.935Z,68.31
2023-01-24T08:54:48.006Z,68.41
2023-01-24T08:55:48.096Z,68.41
2023-01-24T08:56:48.197Z,68.41
2023-01-24T08:57:48.288Z,68.38
2023-01-24T08:58:48.381Z,68.28
2023-01-24T08:59:48.452Z,68.18
2023-01-24T09:00:48.599Z,68.18
2023-01-24T09:01:48.720Z,68.18
2023-01-24T09:02:48.735Z,68.28
2023-01-24T09:03:48.823Z,68.38
2023-01-24T09:04:48.912Z,68.49
2023-01-24T09:05:48.974Z,68.70
2023-01-24T09:06:49.051Z,68.80
2023-01-24T09:07:49.122Z,68.91
2023-01-24T09:08:49.207Z,69.01
2023-01-24T09:09:49.285Z,69.12
2023-01-24T09:10:49.389Z,68.98
2023-01-24T09:11:49.456Z,68.98
2023-01-24T09:12:49.533Z,69.09
2023-01-24T09:13:49.679Z,69.09
2023-01-24T09:14:49.708Z,69.19
2023-01-24T09:15:49.829Z,69.29
2023-01-24T09:16:49.957Z,69.29
2023-01-24T09:17:49.980Z,69.29
2023-01-24T09:18:50.078Z,69.40
2023-01-24T09:19:50.138Z,69.40
2023-01-24T09:20:50.224Z,69.51
2023-01-24T09:21:50.305Z,69.51
2023-01-24T09:22:50.407Z,69.51
2023-01-24T09:23:50.499Z,69.51
2023-01-24T09:24:50.561Z,69.51
2023-01-24T09:25:50.665Z,69.40
2023-01-24T09:26:50.772Z,69.29
2023-01-24T09:27:50.836Z,69.26
2023-01-24T09:28:50.989Z,69.16
2023-01-24T09:29:51.003Z,69.06
2023-01-24T09:30:51.116Z,68.85
2023-01-24T09:31:51.197Z,68.85
2023-01-24T09:32:51.298Z,68.85
2023-01-24T09:33:59.440Z,68.85
2023-01-24T09:34:51.444Z,68.85
2023-01-24T09:35:51.525Z,68.85
2023-01-24T09:36:51.615Z,68.85
2023-01-24T09:37:51.685Z,68.85
2023-01-24T09:39:04.394Z,68.85
2023-01-24T09:39:51.855Z,68.74
2023-01-24T09:40:51.994Z,68.85
2023-01-24T09:42:09.584Z,68.95
2023-01-24T09:42:52.111Z,68.95
2023-01-24T09:43:52.174Z,68.95
2023-01-24T09:44:52.265Z,68.95
2023-01-24T09:45:52.417Z,68.95
2023-01-24T09:46:52.440Z,68.85
2023-01-24T09:47:52.525Z,68.85
2023-01-24T09:48:52.743Z,68.85
2023-01-24T09:49:52.720Z,68.85
2023-01-24T09:50:52.789Z,68.53
2023-01-24T09:51:52.815Z,68.43
2023-01-24T09:52:52.901Z,68.53
2023-01-24T09:53:52.981Z,68.63
2023-01-24T09:54:53.069Z,68.63
2023-01-24T09:55:53.208Z,68.74
2023-01-24T09:56:53.250Z,68.85
2023-01-24T09:57:53.342Z,68.71
2023-01-24T09:58:53.431Z,68.71
2023-01-24T09:59:53.540Z,68.71
2023-01-24T10:00:53.650Z,68.82
2023-01-24T10:01:53.739Z,68.92
2023-01-24T10:02:53.830Z,68.92
2023-01-24T10:03:53.806Z,68.92
2023-01-24T10:04:53.910Z,68.82
2023-01-24T10:05:54.000Z,68.82
2023-01-24T10:06:54.090Z,68.92
2023-01-24T10:07:54.159Z,69.02
2023-01-24T10:08:54.232Z,69.02
2023-01-24T10:09:54.285Z,69.02
2023-01-24T10:10:54.415Z,69.02
2023-01-24T10:11:54.445Z,69.02
2023-01-24T10:12:54.522Z,69.02
2023-01-24T10:13:54.597Z,68.82
2023-01-24T10:14:54.683Z,68.50
2023-01-24T10:15:54.804Z,68.19
2023-01-24T10:16:54.890Z,68.19
2023-01-24T10:17:54.911Z,68.08
2023-01-24T10:18:54.979Z,68.08
2023-01-24T10:19:55.064Z,68.08
2023-01-24T10:20:55.171Z,68.08
2023-01-24T10:21:55.188Z,68.08
2023-01-24T10:22:55.302Z,67.98
2023-01-24T10:23:55.506Z,67.98
2023-01-24T10:24:55.481Z,67.88
2023-01-24T10:25:55.599Z,67.98
2023-01-24T10:26:55.673Z,67.98
2023-01-24T10:27:55.747Z,67.98
2023-01-24T10:28:55.817Z,67.88
2023-01-24T10:29:55.909Z,67.77
2023-01-24T10:30:56.087Z,67.35
2023-01-24T10:31:56.135Z,67.25
2023-01-24T10:32:56.157Z,67.25
2023-01-24T10:33:56.232Z,67.25
2023-01-24T10:34:56.291Z,67.35
2023-01-24T10:35:56.383Z,67.46
2023-01-24T10:36:56.465Z,67.53
2023-01-24T10:37:56.552Z,66.83
2023-01-24T10:38:56.621Z,66.80
2023-01-24T10:39:56.694Z,66.72
2023-01-24T10:40:56.809Z,66.94
2023-01-24T10:41:56.882Z,66.94
2023-01-24T10:42:56.928Z,66.94
2023-01-24T10:43:56.997Z,66.94
2023-01-24T10:44:57.075Z,67.04
2023-01-24T10:45:57.207Z,67.14
2023-01-24T10:46:57.313Z,67.14
2023-01-24T10:47:57.462Z,67.25
2023-01-24T10:48:57.475Z,67.35
2023-01-24T10:50:05.159Z,67.35
2023-01-24T10:51:05.392Z,67.35
2023-01-24T10:51:57.747Z,67.46
2023-01-24T10:52:57.838Z,67.56
2023-01-24T10:53:57.833Z,67.35
2023-01-24T10:55:06.842Z,67.25
2023-01-24T10:56:09.436Z,67.25
2023-01-24T10:57:10.584Z,67.56
2023-01-24T10:57:58.263Z,67.66
2023-01-24T10:59:06.958Z,67.77
2023-01-24T10:59:58.363Z,67.88
2023-01-24T11:00:58.556Z,67.98
2023-01-24T11:01:58.666Z,68.08
2023-01-24T11:04:17.960Z,68.08
2023-01-24T11:05:19.061Z,68.12
2023-01-24T11:06:18.739Z,68.22
2023-01-24T11:10:19.640Z,68.63
2023-01-24T11:11:22.168Z,68.53
2023-01-24T11:14:25.715Z,68.46
2023-01-24T11:16:57.421Z,68.67
2023-01-24T11:18:03.436Z,68.67
2023-01-24T11:18:53.074Z,68.77
2023-01-24T11:20:02.599Z,68.85
2023-01-24T11:20:54.209Z,68.85
2023-01-24T11:22:05.292Z,68.74
2023-01-24T11:22:55.220Z,68.74
2023-01-24T11:23:54.588Z,68.74
2023-01-24T11:24:56.195Z,68.95
2023-01-24T11:32:15.431Z,68.53
2023-01-24T11:38:08.555Z,69.09
2023-01-24T11:46:31.349Z,70.03
2023-01-24T11:47:32.747Z,70.13
2023-01-24T11:48:32.375Z,70.24
2023-01-24T11:51:12.788Z,70.00
2023-01-24T11:52:05.241Z,70.00
2023-01-24T11:53:14.841Z,70.10
2023-01-24T11:54:03.288Z,70.31
2023-01-24T11:56:53.166Z,70.07
2023-01-24T11:57:54.321Z,70.07
2023-01-24T11:58:54.319Z,70.17
2023-01-24T12:02:03.560Z,70.07
2023-01-24T12:12:05.519Z,71.70
2023-01-24T12:15:33.533Z,71.91
2023-01-24T12:21:01.355Z,72.54
2023-01-24T12:22:02.649Z,72.64
2023-01-24T12:24:34.938Z,73.03
2023-01-24T12:27:09.611Z,73.24
2023-01-24T12:30:25.389Z,73.76
2023-01-24T12:48:20.993Z,75.43
2023-01-24T12:51:45.490Z,74.70
2023-01-24T12:52:48.950Z,74.70
2023-01-24T12:53:46.494Z,74.80
2023-01-24T12:54:56.618Z,74.70
2023-01-24T12:56:05.578Z,74.60
2023-01-24T12:56:57.722Z,74.46
2023-01-24T12:57:47.947Z,74.46
2023-01-24T13:02:36.315Z,74.56
2023-01-24T13:05:01.319Z,74.66
2023-01-24T13:06:02.139Z,74.56
2023-01-24T13:07:01.881Z,74.66
2023-01-24T13:08:02.009Z,74.98
2023-01-24T13:09:02.315Z,75.05
2023-01-24T13:13:30.774Z,75.40
2023-01-24T13:14:31.549Z,75.60
2023-01-24T13:15:32.563Z,75.57
2023-01-24T13:16:49.818Z,75.57
2023-01-24T13:17:31.737Z,75.36
2023-01-24T13:18:31.785Z,75.36
2023-01-24T13:31:17.803Z,75.81
2023-01-24T13:32:32.035Z,75.71
2023-01-24T13:33:20.052Z,75.81
2023-01-24T13:34:18.032Z,75.92
2023-01-24T13:35:18.456Z,76.02
2023-01-24T13:36:18.653Z,75.88
2023-01-24T13:57:46.673Z,75.92
2023-01-24T13:58:47.734Z,75.92
2023-01-24T14:00:08.157Z,75.92
2023-01-24T14:01:06.266Z,75.92
2023-01-24T14:01:48.565Z,75.92
2023-01-24T14:02:49.017Z,75.78
2023-01-24T14:03:48.131Z,75.67
2023-01-24T14:04:48.101Z,75.57
2023-01-24T14:05:48.198Z,75.43
2023-01-24T14:08:19.860Z,75.22
2023-01-24T14:09:20.891Z,75.22
2023-01-24T14:10:20.962Z,75.32
2023-01-24T14:11:21.060Z,75.43
2023-01-24T14:12:21.102Z,75.32
2023-01-24T14:13:21.189Z,75.22
2023-01-24T14:14:21.276Z,75.12
2023-01-24T14:15:21.381Z,74.98
2023-01-24T14:16:21.522Z,74.87
2023-01-24T14:17:21.539Z,74.87
2023-01-24T14:18:21.660Z,74.77
2023-01-24T14:19:21.763Z,74.77
2023-01-24T14:20:21.803Z,74.77
2023-01-24T14:21:21.873Z,74.66
2023-01-24T14:22:21.966Z,74.63
2023-01-24T14:23:22.069Z,74.63
2023-01-24T14:24:22.213Z,74.53
2023-01-24T14:25:22.231Z,74.32
2023-01-24T14:26:22.335Z,74.32
2023-01-24T14:27:22.457Z,74.11
2023-01-24T14:28:22.528Z,74.01
2023-01-24T14:29:22.564Z,73.80
2023-01-24T14:30:22.738Z,73.80
2023-01-24T14:31:22.819Z,73.69
2023-01-24T14:32:22.826Z,73.69
2023-01-24T14:33:22.929Z,73.69
2023-01-24T14:34:23.021Z,73.66
2023-01-24T14:35:23.058Z,73.66
2023-01-24T14:36:23.149Z,73.56
2023-01-24T14:37:23.220Z,73.56
2023-01-24T14:38:23.303Z,73.46
2023-01-24T14:39:23.326Z,73.46
2023-01-24T14:40:23.429Z,73.35
2023-01-24T14:41:23.494Z,73.35
2023-01-24T14:42:23.589Z,73.35
2023-01-24T14:43:23.677Z,73.35
2023-01-24T14:44:23.796Z,73.25
2023-01-24T14:45:23.868Z,73.25
2023-01-24T14:46:24.107Z,73.14
2023-01-24T14:47:24.038Z,73.14
2023-01-24T14:48:24.108Z,73.03
2023-01-24T14:49:24.148Z,73.03
2023-01-24T14:50:24.222Z,72.93
2023-01-24T14:51:24.309Z,72.93
2023-01-24T14:52:24.404Z,72.83
2023-01-24T14:53:24.514Z,72.83
2023-01-24T14:54:24.569Z,72.83
2023-01-24T14:55:24.581Z,72.72
2023-01-24T14:56:24.681Z,72.62
2023-01-24T14:57:24.791Z,72.62
2023-01-24T14:58:24.859Z,72.62
2023-01-24T14:59:24.886Z,72.72
2023-01-24T15:00:24.974Z,72.72
2023-01-24T15:01:25.118Z,72.72
2023-01-24T15:02:25.183Z,72.72
2023-01-24T15:03:25.305Z,72.72
2023-01-24T15:04:25.312Z,72.72
2023-01-24T15:05:25.397Z,72.72
2023-01-24T15:06:25.498Z,72.72
2023-01-24T15:07:25.576Z,72.83
2023-01-24T15:08:25.683Z,72.83
2023-01-24T15:09:25.733Z,72.83
2023-01-24T15:10:25.814Z,72.83
2023-01-24T15:11:25.910Z,72.83
2023-01-24T15:12:25.984Z,72.83
2023-01-24T15:13:26.099Z,72.83
2023-01-24T15:14:26.137Z,72.83